createdAt,value
2022-12-14T00:01:21.938Z,-1.13
2022-12-14T00:03:51.023Z,-1.14
2022-12-14T00:06:20.218Z,-1.14
2022-12-14T00:08:48.056Z,-1.14
2022-12-14T00:11:15.228Z,-1.15
2022-12-14T00:13:44.020Z,-1.13
2022-12-14T00:16:17.710Z,-1.12
2022-12-14T00:18:45.167Z,-1.11
2022-12-14T00:21:14.428Z,-1.12
2022-12-14T00:23:43.683Z,-1.13
2022-12-14T00:26:12.855Z,-1.13
2022-12-14T00:28:39.757Z,-1.13
2022-12-14T00:31:06.841Z,-1.13
2022-12-14T00:33:34.086Z,-1.13
2022-12-14T00:36:21.014Z,-1.11
2022-12-14T00:38:47.662Z,-1.11
2022-12-14T00:41:14.412Z,-1.10
2022-12-14T00:43:41.146Z,-1.09
2022-12-14T00:46:08.357Z,-1.09
2022-12-14T00:48:35.360Z,-1.11
2022-12-14T00:51:02.153Z,-1.13
2022-12-14T00:53:30.435Z,-1.12
2022-12-14T00:55:57.214Z,-1.12
2022-12-14T00:58:27.257Z,-1.09
2022-12-14T01:01:01.880Z,-1.08
2022-12-14T01:03:29.229Z,-1.08
2022-12-14T01:05:56.474Z,-1.09
2022-12-14T01:08:24.046Z,-1.10
2022-12-14T01:10:52.217Z,-1.11
2022-12-14T01:13:20.383Z,-1.12
2022-12-14T01:15:47.356Z,-1.15
2022-12-14T01:18:14.204Z,-1.14
2022-12-14T01:20:40.852Z,-1.13
2022-12-14T01:23:07.705Z,-1.11
2022-12-14T01:25:34.641Z,-1.12
2022-12-14T01:28:02.834Z,-1.10
2022-12-14T01:30:29.847Z,-1.14
2022-12-14T01:32:56.624Z,-1.16
2022-12-14T01:35:23.270Z,-1.17
2022-12-14T01:37:49.933Z,-1.19
2022-12-14T01:40:17.007Z,-1.19
2022-12-14T01:42:43.919Z,-1.17
2022-12-14T01:45:20.952Z,-1.15
2022-12-14T01:47:53.864Z,-1.15
2022-12-14T01:50:27.242Z,-1.15
2022-12-14T01:52:57.538Z,-1.16
2022-12-14T01:55:27.557Z,-1.16
2022-12-14T01:57:59.309Z,-1.17
2022-12-14T02:00:27.471Z,-1.19
2022-12-14T02:03:00.076Z,-1.19
2022-12-14T02:05:27.595Z,-1.20
2022-12-14T02:07:56.522Z,-1.20
2022-12-14T02:10:26.252Z,-1.21
2022-12-14T02:12:59.493Z,-1.19
2022-12-14T02:15:28.254Z,-1.20
2022-12-14T02:17:55.494Z,-1.19
2022-12-14T02:20:23.884Z,-1.18
2022-12-14T02:23:16.432Z,-1.17
2022-12-14T02:26:17.007Z,-1.19
2022-12-14T02:29:16.594Z,-1.19
2022-12-14T02:31:50.290Z,-1.20
2022-12-14T02:34:27.056Z,-1.20
2022-12-14T02:37:00.174Z,-1.22
2022-12-14T02:39:38.358Z,-1.22
2022-12-14T02:42:10.466Z,-1.23
2022-12-14T02:44:50.165Z,-1.23
2022-12-14T02:47:24.920Z,-1.21
2022-12-14T02:50:14.256Z,-1.21
2022-12-14T02:52:47.469Z,-1.22
2022-12-14T02:55:18.322Z,-1.24
2022-12-14T02:57:49.828Z,-1.25
2022-12-14T03:00:19.460Z,-1.26
2022-12-14T03:02:48.029Z,-1.27
2022-12-14T03:05:15.067Z,-1.27
2022-12-14T03:07:48.917Z,-1.27
2022-12-14T03:10:25.547Z,-1.29
2022-12-14T03:12:57.924Z,-1.29
2022-12-14T03:15:27.242Z,-1.29
2022-12-14T03:17:57.798Z,-1.31
2022-12-14T03:20:26.757Z,-1.31
2022-12-14T03:22:58.496Z,-1.33
2022-12-14T03:25:30.624Z,-1.33
2022-12-14T03:28:01.220Z,-1.33
2022-12-14T03:30:58.923Z,-1.36
2022-12-14T03:33:24.380Z,-1.36
2022-12-14T03:35:57.593Z,-1.34
2022-12-14T03:38:30.361Z,-1.34
2022-12-14T03:41:03.843Z,-1.34
2022-12-14T03:43:37.950Z,-1.34
2022-12-14T03:46:11.987Z,-1.34
2022-12-14T03:48:45.508Z,-1.34
2022-12-14T03:51:19.657Z,-1.34
2022-12-14T03:53:51.720Z,-1.36
2022-12-14T03:56:24.729Z,-1.38
2022-12-14T03:59:01.113Z,-1.40
2022-12-14T04:01:40.342Z,-1.40
2022-12-14T04:04:11.932Z,-1.40
2022-12-14T04:06:46.069Z,-1.40
2022-12-14T04:09:25.728Z,-1.40
2022-12-14T04:12:16.734Z,-1.43
2022-12-14T04:15:06.205Z,-1.43
2022-12-14T04:17:56.422Z,-1.44
2022-12-14T04:20:28.017Z,-1.43
2022-12-14T04:23:51.082Z,-1.42
2022-12-14T04:26:24.748Z,-1.44
2022-12-14T04:29:13.217Z,-1.44
2022-12-14T04:31:45.054Z,-1.44
2022-12-14T04:34:20.048Z,-1.45
2022-12-14T04:36:53.461Z,-1.45
2022-12-14T04:39:25.877Z,-1.46
2022-12-14T04:41:56.673Z,-1.45
2022-12-14T04:44:33.839Z,-1.47
2022-12-14T04:47:01.978Z,-1.47
2022-12-14T04:49:36.690Z,-1.48
2022-12-14T04:52:11.432Z,-1.50
2022-12-14T04:54:45.352Z,-1.50
2022-12-14T04:57:19.286Z,-1.52
2022-12-14T04:59:47.808Z,-1.52
2022-12-14T05:02:21.829Z,-1.53
2022-12-14T05:05:00.337Z,-1.53
2022-12-14T05:07:37.673Z,-1.52
2022-12-14T05:10:12.799Z,-1.54
2022-12-14T05:12:44.123Z,-1.53
2022-12-14T05:15:14.814Z,-1.54
2022-12-14T05:17:42.733Z,-1.54
2022-12-14T05:20:16.951Z,-1.54
2022-12-14T05:22:43.711Z,-1.56
2022-12-14T05:25:10.408Z,-1.54
2022-12-14T05:27:37.139Z,-1.55
2022-12-14T05:30:04.805Z,-1.53
2022-12-14T05:32:31.718Z,-1.53
2022-12-14T05:34:58.344Z,-1.54
2022-12-14T05:37:29.561Z,-1.54
2022-12-14T05:39:58.162Z,-1.54
2022-12-14T05:42:24.840Z,-1.53
2022-12-14T05:44:51.480Z,-1.51
2022-12-14T05:47:18.744Z,-1.51
2022-12-14T05:49:56.858Z,-1.53
2022-12-14T05:52:24.700Z,-1.50
2022-12-14T05:54:53.088Z,-1.51
2022-12-14T05:57:19.791Z,-1.51
2022-12-14T05:59:46.422Z,-1.54
2022-12-14T06:02:13.397Z,-1.52
2022-12-14T06:04:40.193Z,-1.52
2022-12-14T06:07:09.563Z,-1.50
2022-12-14T06:09:36.384Z,-1.50
2022-12-14T06:12:04.584Z,-1.50
2022-12-14T06:14:31.352Z,-1.49
2022-12-14T06:16:57.961Z,-1.50
2022-12-14T06:19:24.689Z,-1.51
2022-12-14T06:21:51.467Z,-1.50
2022-12-14T06:24:18.157Z,-1.52
2022-12-14T06:26:44.793Z,-1.51
2022-12-14T06:29:15.957Z,-1.54
2022-12-14T06:31:42.858Z,-1.53
2022-12-14T06:34:10.715Z,-1.55
2022-12-14T06:36:39.770Z,-1.58
2022-12-14T06:39:08.563Z,-1.58
2022-12-14T06:41:35.258Z,-1.59
2022-12-14T06:44:05.828Z,-1.60
2022-12-14T06:46:34.680Z,-1.62
2022-12-14T06:49:01.634Z,-1.63
2022-12-14T06:51:28.388Z,-1.64
2022-12-14T06:53:56.800Z,-1.63
2022-12-14T06:56:24.836Z,-1.64
2022-12-14T06:58:52.670Z,-1.66
2022-12-14T07:01:21.124Z,-1.66
2022-12-14T07:03:51.626Z,-1.69
2022-12-14T07:06:18.418Z,-1.70
2022-12-14T07:08:45.127Z,-1.72
2022-12-14T07:11:14.743Z,-1.72
2022-12-14T07:13:41.555Z,-1.73
2022-12-14T07:16:19.261Z,-1.75
2022-12-14T07:18:46.324Z,-1.78
2022-12-14T07:21:16.853Z,-1.79
2022-12-14T07:23:44.780Z,-1.82
2022-12-14T07:26:12.974Z,-1.83
2022-12-14T07:28:41.009Z,-1.84
2022-12-14T07:31:11.822Z,-1.85
2022-12-14T07:33:38.711Z,-1.88
2022-12-14T07:36:07.507Z,-1.89
2022-12-14T07:38:37.028Z,-1.90
2022-12-14T07:41:10.003Z,-1.90
2022-12-14T07:43:37.220Z,-1.91
2022-12-14T07:46:06.524Z,-1.92
2022-12-14T07:48:33.717Z,-1.95
2022-12-14T07:51:05.069Z,-1.97
2022-12-14T07:53:32.375Z,-1.97
2022-12-14T07:56:02.698Z,-2.00
2022-12-14T07:58:29.827Z,-2.01
2022-12-14T08:00:56.710Z,-2.03
2022-12-14T08:03:25.682Z,-2.04
2022-12-14T08:05:53.979Z,-2.04
2022-12-14T08:08:23.938Z,-2.04
2022-12-14T08:10:50.649Z,-2.04
2022-12-14T08:13:18.738Z,-2.06
2022-12-14T08:15:45.453Z,-2.07
2022-12-14T08:18:12.200Z,-2.08
2022-12-14T08:20:38.988Z,-2.08
2022-12-14T08:23:05.753Z,-2.10
2022-12-14T08:25:32.458Z,-2.13
2022-12-14T08:27:59.286Z,-2.15
2022-12-14T08:30:27.294Z,-2.17
2022-12-14T08:32:55.616Z,-2.18
2022-12-14T08:35:22.270Z,-2.20
2022-12-14T08:37:48.941Z,-2.22
2022-12-14T08:40:15.645Z,-2.22
2022-12-14T08:42:42.255Z,-2.23
2022-12-14T08:45:09.867Z,-2.23
2022-12-14T08:47:37.854Z,-2.25
2022-12-14T08:50:05.482Z,-2.26
2022-12-14T08:52:32.314Z,-2.28
2022-12-14T08:54:59.994Z,-2.32
2022-12-14T08:57:26.893Z,-2.34
2022-12-14T09:00:02.314Z,-2.35
2022-12-14T09:02:29.827Z,-2.35
2022-12-14T09:04:57.996Z,-2.36
2022-12-14T09:07:24.720Z,-2.37
2022-12-14T09:09:51.357Z,-2.39
2022-12-14T09:12:18.114Z,-2.39
2022-12-14T09:14:46.683Z,-2.39
2022-12-14T09:17:16.485Z,-2.38
2022-12-14T09:19:43.670Z,-2.36
2022-12-14T09:22:11.890Z,-2.35
2022-12-14T09:24:38.697Z,-2.33
2022-12-14T09:27:05.490Z,-2.32
2022-12-14T09:29:32.191Z,-2.31
2022-12-14T09:31:58.907Z,-2.30
2022-12-14T09:34:25.958Z,-2.28
2022-12-14T09:36:53.108Z,-2.26
2022-12-14T09:39:21.261Z,-2.24
2022-12-14T09:42:02.698Z,-2.23
2022-12-14T09:44:41.297Z,-2.21
2022-12-14T09:47:15.844Z,-2.19
2022-12-14T09:49:47.014Z,-2.17
2022-12-14T09:52:17.711Z,-2.16
2022-12-14T09:54:49.667Z,-2.15
2022-12-14T09:57:21.383Z,-2.15
2022-12-14T09:59:48.149Z,-2.14
2022-12-14T10:02:31.795Z,-2.12
2022-12-14T10:05:12.928Z,-2.11
2022-12-14T10:07:47.407Z,-2.08
2022-12-14T10:10:24.068Z,-2.07
2022-12-14T10:13:03.012Z,-2.04
2022-12-14T10:15:37.366Z,-2.01
2022-12-14T10:18:59.065Z,-1.97
2022-12-14T10:21:15.519Z,-1.94
2022-12-14T10:23:51.152Z,-1.92
2022-12-14T10:26:22.878Z,-1.90
2022-12-14T10:29:01.027Z,-1.87
2022-12-14T10:31:36.127Z,-1.85
2022-12-14T10:34:15.634Z,-1.82
2022-12-14T10:36:52.131Z,-1.81
2022-12-14T10:39:37.384Z,-1.78
2022-12-14T10:42:15.331Z,-1.75
2022-12-14T10:44:56.083Z,-1.71
2022-12-14T10:47:37.366Z,-1.68
2022-12-14T10:50:16.093Z,-1.66
2022-12-14T10:52:54.217Z,-1.62
2022-12-14T10:55:29.074Z,-1.60
2022-12-14T10:57:57.216Z,-1.56
2022-12-14T11:00:24.132Z,-1.53
2022-12-14T11:02:54.948Z,-1.49
2022-12-14T11:05:36.079Z,-1.48
2022-12-14T11:08:04.260Z,-1.44
2022-12-14T11:10:39.525Z,-1.41
2022-12-14T11:13:17.261Z,-1.39
2022-12-14T11:15:47.018Z,-1.37
2022-12-14T11:18:27.911Z,-1.33
2022-12-14T11:20:57.300Z,-1.31
2022-12-14T11:23:26.917Z,-1.28
2022-12-14T11:25:56.972Z,-1.25
2022-12-14T11:28:36.683Z,-1.22
2022-12-14T11:31:07.431Z,-1.19
2022-12-14T11:33:41.400Z,-1.17
2022-12-14T11:36:09.938Z,-1.14
2022-12-14T11:38:38.051Z,-1.09
2022-12-14T11:41:10.935Z,-1.08
2022-12-14T11:43:42.358Z,-1.05
2022-12-14T11:46:09.284Z,-1.02
2022-12-14T11:48:38.494Z,-0.98
2022-12-14T11:51:14.908Z,-0.95
2022-12-14T11:53:41.851Z,-0.92
2022-12-14T11:56:15.300Z,-0.89
2022-12-14T11:58:51.776Z,-0.85
2022-12-14T12:01:24.542Z,-0.81
2022-12-14T12:03:55.180Z,-0.78
2022-12-14T12:06:24.881Z,-0.75
2022-12-14T12:08:56.263Z,-0.72
2022-12-14T12:11:26.520Z,-0.69
2022-12-14T12:14:00.065Z,-0.67
2022-12-14T12:16:28.308Z,-0.63
2022-12-14T12:19:11.349Z,-0.60
2022-12-14T12:21:41.585Z,-0.56
2022-12-14T12:24:16.636Z,-0.53
2022-12-14T12:26:50.135Z,-0.50
2022-12-14T12:29:24.152Z,-0.47
2022-12-14T12:31:56.657Z,-0.43
2022-12-14T12:34:32.122Z,-0.41
2022-12-14T12:39:58.801Z,-0.33
2022-12-14T12:42:41.154Z,-0.30
2022-12-14T12:45:16.480Z,-0.27
2022-12-14T12:47:48.878Z,-0.24
2022-12-14T12:50:17.642Z,-0.21
2022-12-14T12:53:03.158Z,-0.17
2022-12-14T12:55:35.859Z,-0.14
2022-12-14T12:58:05.086Z,-0.11
2022-12-14T13:00:34.322Z,-0.09
2022-12-14T13:03:08.711Z,-0.05
2022-12-14T13:05:48.676Z,-0.03
2022-12-14T13:08:25.994Z,-0.01
2022-12-14T13:11:25.659Z,0.03
2022-12-14T13:13:45.428Z,0.07
2022-12-14T13:16:24.690Z,0.09
2022-12-14T13:19:19.056Z,0.13
2022-12-14T13:21:50.125Z,0.15
2022-12-14T13:24:19.613Z,0.16
2022-12-14T13:27:25.810Z,0.19
2022-12-14T13:30:09.787Z,0.22
2022-12-14T13:32:50.885Z,0.25
2022-12-14T13:35:41.428Z,0.27
2022-12-14T13:38:32.967Z,0.29
2022-12-14T13:41:28.228Z,0.32
2022-12-14T13:44:10.861Z,0.34
2022-12-14T13:46:37.800Z,0.37
2022-12-14T13:49:15.152Z,0.38
2022-12-14T13:51:50.077Z,0.41
2022-12-14T13:54:21.921Z,0.43
2022-12-14T13:56:50.086Z,0.44
2022-12-14T13:59:29.350Z,0.46
2022-12-14T14:01:58.950Z,0.48
2022-12-14T14:04:29.655Z,0.50
2022-12-14T14:07:19.889Z,0.50
2022-12-14T14:10:06.906Z,0.52
2022-12-14T14:12:38.660Z,0.53
2022-12-14T14:16:11.302Z,0.54
2022-12-14T14:18:37.494Z,0.55
2022-12-14T14:21:32.946Z,0.56
2022-12-14T14:24:01.945Z,0.55
2022-12-14T14:26:50.771Z,0.55
2022-12-14T14:29:24.956Z,0.57
2022-12-14T14:31:55.019Z,0.57
2022-12-14T14:34:48.461Z,0.59
2022-12-14T14:37:26.111Z,0.60
2022-12-14T14:40:20.928Z,0.58
2022-12-14T14:42:59.287Z,0.57
2022-12-14T14:45:32.685Z,0.57
2022-12-14T14:48:02.771Z,0.56
2022-12-14T14:50:34.273Z,0.56
2022-12-14T14:53:12.731Z,0.55
2022-12-14T14:55:53.679Z,0.54
2022-12-14T14:58:27.102Z,0.53
2022-12-14T15:01:12.540Z,0.50
2022-12-14T15:03:47.576Z,0.48
2022-12-14T15:06:16.986Z,0.47
2022-12-14T15:08:48.215Z,0.45
2022-12-14T15:11:17.958Z,0.42
2022-12-14T15:13:48.566Z,0.40
2022-12-14T15:16:24.650Z,0.38
2022-12-14T15:18:51.515Z,0.35
2022-12-14T15:21:19.692Z,0.32
2022-12-14T15:23:50.670Z,0.30
2022-12-14T15:26:21.482Z,0.28
2022-12-14T15:28:50.554Z,0.25
2022-12-14T15:31:19.091Z,0.22
2022-12-14T15:33:47.931Z,0.20
2022-12-14T15:36:16.887Z,0.15
2022-12-14T15:38:55.741Z,0.11
2022-12-14T15:41:24.212Z,0.07
2022-12-14T15:43:56.479Z,0.04
2022-12-14T15:46:28.941Z,0.00
2022-12-14T15:48:57.261Z,-0.03
2022-12-14T15:51:28.669Z,-0.05
2022-12-14T15:53:57.826Z,-0.08
2022-12-14T15:56:29.959Z,-0.10
2022-12-14T15:58:58.818Z,-0.13
2022-12-14T16:01:29.680Z,-0.17
2022-12-14T16:04:08.340Z,-0.18
2022-12-14T16:06:42.844Z,-0.23
2022-12-14T16:09:22.888Z,-0.27
2022-12-14T16:11:54.029Z,-0.31
2022-12-14T16:14:29.405Z,-0.34
2022-12-14T16:16:56.700Z,-0.38
2022-12-14T16:19:28.838Z,-0.40
2022-12-14T16:22:16.287Z,-0.45
2022-12-14T16:25:00.386Z,-0.49
2022-12-14T16:27:38.048Z,-0.53
2022-12-14T16:30:17.680Z,-0.57
2022-12-14T16:32:45.033Z,-0.60
2022-12-14T16:35:20.922Z,-0.64
2022-12-14T16:37:51.458Z,-0.67
2022-12-14T16:40:38.290Z,-0.71
2022-12-14T16:43:07.444Z,-0.73
2022-12-14T16:46:05.883Z,-0.75
2022-12-14T16:48:36.033Z,-0.77
2022-12-14T16:51:51.011Z,-0.79
2022-12-14T16:54:24.221Z,-0.84
2022-12-14T16:57:02.809Z,-0.86
2022-12-14T16:59:42.069Z,-0.91
2022-12-14T17:02:30.129Z,-0.94
2022-12-14T17:04:58.492Z,-1.00
2022-12-14T17:07:27.797Z,-1.02
2022-12-14T17:09:56.448Z,-1.05
2022-12-14T17:12:26.167Z,-1.08
2022-12-14T17:14:53.913Z,-1.10
2022-12-14T17:17:27.081Z,-1.15
2022-12-14T17:19:53.944Z,-1.19
2022-12-14T17:22:27.564Z,-1.23
2022-12-14T17:24:54.607Z,-1.26
2022-12-14T17:27:22.357Z,-1.29
2022-12-14T17:29:54.599Z,-1.32
2022-12-14T17:32:22.275Z,-1.35
2022-12-14T17:34:49.085Z,-1.40
2022-12-14T17:37:17.819Z,-1.42
2022-12-14T17:39:44.690Z,-1.45
2022-12-14T17:42:14.209Z,-1.49
2022-12-14T17:44:45.598Z,-1.52
2022-12-14T17:47:14.630Z,-1.56
2022-12-14T17:49:42.979Z,-1.61
2022-12-14T17:52:17.011Z,-1.63
2022-12-14T17:54:43.895Z,-1.68
2022-12-14T17:57:15.727Z,-1.68
2022-12-14T17:59:47.267Z,-1.72
2022-12-14T18:02:25.923Z,-1.74
2022-12-14T18:04:52.797Z,-1.77
2022-12-14T18:07:19.623Z,-1.78
2022-12-14T18:09:47.222Z,-1.81
2022-12-14T18:12:22.988Z,-1.82
2022-12-14T18:14:50.444Z,-1.85
2022-12-14T18:17:17.268Z,-1.87
2022-12-14T18:19:45.545Z,-1.88
2022-12-14T18:22:15.051Z,-1.94
2022-12-14T18:24:41.755Z,-1.98
2022-12-14T18:27:09.098Z,-2.03
2022-12-14T18:29:38.864Z,-2.05
2022-12-14T18:32:05.729Z,-2.08
2022-12-14T18:34:32.523Z,-2.13
2022-12-14T18:37:01.154Z,-2.19
2022-12-14T18:39:31.517Z,-2.21
2022-12-14T18:41:58.512Z,-2.25
2022-12-14T18:44:25.255Z,-2.31
2022-12-14T18:46:52.249Z,-2.33
2022-12-14T18:49:20.768Z,-2.34
2022-12-14T18:51:47.578Z,-2.37
2022-12-14T18:54:15.676Z,-2.40
2022-12-14T18:56:42.697Z,-2.42
2022-12-14T18:59:09.767Z,-2.43
2022-12-14T19:01:36.919Z,-2.46
2022-12-14T19:04:04.167Z,-2.50
2022-12-14T19:06:46.663Z,-2.52
2022-12-14T19:09:15.611Z,-2.56
2022-12-14T19:11:45.974Z,-2.59
2022-12-14T19:14:12.725Z,-2.61
2022-12-14T19:16:41.754Z,-2.61
2022-12-14T19:19:08.602Z,-2.65
2022-12-14T19:21:35.364Z,-2.69
2022-12-14T19:24:02.127Z,-2.70
2022-12-14T19:26:31.066Z,-2.73
2022-12-14T19:28:57.751Z,-2.74
2022-12-14T19:31:24.645Z,-2.76
2022-12-14T19:33:51.434Z,-2.79
2022-12-14T19:36:19.832Z,-2.80
2022-12-14T19:38:49.450Z,-2.81
2022-12-14T19:41:20.195Z,-2.86
2022-12-14T19:43:50.209Z,-2.89
2022-12-14T19:46:18.027Z,-2.90
2022-12-14T19:48:57.309Z,-2.91
2022-12-14T19:51:24.071Z,-2.91
2022-12-14T19:53:52.869Z,-2.94
2022-12-14T19:56:19.893Z,-2.96
2022-12-14T19:58:48.228Z,-2.95
2022-12-14T20:01:18.228Z,-2.97
2022-12-14T20:03:45.131Z,-3.00
2022-12-14T20:06:11.989Z,-3.00
2022-12-14T20:08:38.767Z,-2.99
2022-12-14T20:11:06.952Z,-3.01
2022-12-14T20:13:34.167Z,-3.02
2022-12-14T20:16:02.807Z,-3.03
2022-12-14T20:18:31.158Z,-3.02
2022-12-14T20:21:02.251Z,-3.04
2022-12-14T20:23:29.270Z,-3.06
2022-12-14T20:26:00.247Z,-3.08
2022-12-14T20:28:26.998Z,-3.10
2022-12-14T20:30:53.882Z,-3.11
2022-12-14T20:33:28.096Z,-3.12
2022-12-14T20:35:56.890Z,-3.11
2022-12-14T20:38:23.705Z,-3.12
2022-12-14T20:40:50.435Z,-3.12
2022-12-14T20:43:17.307Z,-3.15
2022-12-14T20:45:44.293Z,-3.19
2022-12-14T20:48:11.216Z,-3.19
2022-12-14T20:50:42.159Z,-3.21
2022-12-14T20:53:09.243Z,-3.22
2022-12-14T20:55:36.187Z,-3.26
2022-12-14T20:58:03.053Z,-3.27
2022-12-14T21:00:29.998Z,-3.29
2022-12-14T21:02:56.828Z,-3.30
2022-12-14T21:05:23.688Z,-3.31
2022-12-14T21:07:52.062Z,-3.33
2022-12-14T21:10:19.068Z,-3.33
2022-12-14T21:12:48.174Z,-3.33
2022-12-14T21:15:14.915Z,-3.33
2022-12-14T21:17:41.661Z,-3.32
2022-12-14T21:20:11.331Z,-3.30
2022-12-14T21:22:38.137Z,-3.29
2022-12-14T21:25:07.503Z,-3.29
2022-12-14T21:27:38.160Z,-3.30
2022-12-14T21:30:06.747Z,-3.31
2022-12-14T21:32:37.387Z,-3.31
2022-12-14T21:35:06.097Z,-3.31
2022-12-14T21:37:32.909Z,-3.30
2022-12-14T21:40:02.839Z,-3.30
2022-12-14T21:42:31.027Z,-3.32
2022-12-14T21:44:57.851Z,-3.34
2022-12-14T21:47:26.158Z,-3.35
2022-12-14T21:49:53.594Z,-3.35
2022-12-14T21:52:23.067Z,-3.34
2022-12-14T21:54:50.276Z,-3.35
2022-12-14T21:57:38.068Z,-3.35
2022-12-14T22:00:08.423Z,-3.38
2022-12-14T22:02:35.472Z,-3.37
2022-12-14T22:05:02.435Z,-3.37
2022-12-14T22:07:31.720Z,-3.39
2022-12-14T22:09:58.558Z,-3.41
2022-12-14T22:12:25.745Z,-3.40
2022-12-14T22:14:52.676Z,-3.38
2022-12-14T22:17:20.779Z,-3.37
2022-12-14T22:19:48.843Z,-3.37
2022-12-14T22:22:16.888Z,-3.37
2022-12-14T22:24:44.064Z,-3.35
2022-12-14T22:27:15.373Z,-3.34
2022-12-14T22:29:42.209Z,-3.33
2022-12-14T22:32:11.680Z,-3.31
2022-12-14T22:34:39.901Z,-3.32
2022-12-14T22:37:06.577Z,-3.30
2022-12-14T22:39:33.371Z,-3.29
2022-12-14T22:42:00.242Z,-3.28
2022-12-14T22:44:27.185Z,-3.27
2022-12-14T22:46:54.144Z,-3.27
2022-12-14T22:49:21.140Z,-3.26
2022-12-14T22:51:50.478Z,-3.25
2022-12-14T22:54:20.888Z,-3.25
2022-12-14T22:56:52.828Z,-3.24
2022-12-14T22:59:22.313Z,-3.25
2022-12-14T23:01:50.111Z,-3.25
2022-12-14T23:04:17.732Z,-3.24
2022-12-14T23:06:45.133Z,-3.26
2022-12-14T23:09:32.097Z,-3.28
2022-12-14T23:12:21.587Z,-3.30
2022-12-14T23:15:07.473Z,-3.29
2022-12-14T23:17:52.548Z,-3.31
2022-12-14T23:20:37.661Z,-3.31
2022-12-14T23:23:24.327Z,-3.31
2022-12-14T23:26:11.152Z,-3.31
2022-12-14T23:28:56.698Z,-3.30
2022-12-14T23:31:41.943Z,-3.29
2022-12-14T23:34:27.506Z,-3.28
2022-12-14T23:37:16.512Z,-3.29
2022-12-14T23:40:06.301Z,-3.28
2022-12-14T23:42:52.991Z,-3.28
2022-12-14T23:45:39.308Z,-3.29
2022-12-14T23:48:24.727Z,-3.31
2022-12-14T23:51:09.857Z,-3.31
2022-12-14T23:53:54.887Z,-3.31
2022-12-14T23:56:40.044Z,-3.33
2022-12-14T23:59:31.851Z,-3.33
